Sneek, Netherlands
Current Conditions -  °F | °C
As of 6:55 PM on Wednesday 28 Jan 2015 (Local Time) from EHLW Reporting Station
Broken Clouds Broken Clouds  
Wind Chill: 29°   Ceiling: 5000
Heat Index: 39°   Visibility: 6mi
Dew Point: 32°   Wind: 21mph
Humidity: 75%   Direction: 280°W
Pressure: 29.26"   Gusts: NA
Location:  53.03°N, 5.66°E
Report Text: EHLW 281755Z AUTO 28018KT 9999 FEW064 04/00 Q0991 BLU 27019G30KT 9999 SCT030 BKN050 TEMPO 29025G36KT 4500 SHRA SCT018CB BKN035
Loading
Personal Weather Stations






























Interactive Weather Map New forecast layout! Learn more

10-Day Weather Forecast

Advertisements
Track Severe Weather on mobile